createdAt,value
2023-02-15T00:00:26.499Z,97839.38
2023-02-15T00:02:54.788Z,97892.56
2023-02-15T00:05:22.935Z,97889.13
2023-02-15T00:07:51.130Z,97918.69
2023-02-15T00:10:19.521Z,97943.50
2023-02-15T00:12:47.697Z,97880.94
2023-02-15T00:15:17.479Z,97897.19
2023-02-15T00:17:45.645Z,97892.81
2023-02-15T00:20:14.099Z,97855.75
2023-02-15T00:22:42.680Z,97887.50
2023-02-15T00:25:10.850Z,97838.09
2023-02-15T00:27:39.013Z,97885.47
2023-02-15T00:30:09.005Z,97844.13
2023-02-15T00:32:38.763Z,97882.16
2023-02-15T00:35:08.270Z,97859.09
2023-02-15T00:37:36.511Z,97856.44
2023-02-15T00:40:06.767Z,97915.91
2023-02-15T00:42:35.074Z,97837.97
2023-02-15T00:45:03.320Z,97852.50
2023-02-15T00:47:31.484Z,97847.47
2023-02-15T00:50:01.013Z,97859.81
2023-02-15T00:52:29.222Z,97886.78
2023-02-15T00:54:57.890Z,97852.16
2023-02-15T00:57:26.151Z,97835.78
2023-02-15T00:59:54.313Z,97881.41
2023-02-15T01:02:47.517Z,97842.03
2023-02-15T01:05:19.494Z,97862.84
2023-02-15T01:07:52.525Z,97850.97
2023-02-15T01:10:21.615Z,97795.75
2023-02-15T01:12:50.067Z,97877.22
2023-02-15T01:15:18.303Z,97837.78
2023-02-15T01:17:53.049Z,97908.28
2023-02-15T01:20:28.453Z,97903.25
2023-02-15T01:22:57.596Z,97867.28
2023-02-15T01:25:26.928Z,97871.88
2023-02-15T01:27:57.035Z,97877.22
2023-02-15T01:30:25.292Z,97835.38
2023-02-15T01:32:53.749Z,97836.13
2023-02-15T01:35:22.186Z,97837.53
2023-02-15T01:37:51.776Z,97818.22
2023-02-15T01:40:21.532Z,97834.38
2023-02-15T01:42:53.632Z,97856.66
2023-02-15T01:45:26.202Z,97780.53
2023-02-15T01:48:00.195Z,97851.94
2023-02-15T01:50:35.655Z,97867.81
2023-02-15T01:53:11.203Z,97831.84
2023-02-15T01:55:43.423Z,97802.91
2023-02-15T01:58:12.176Z,97804.38
2023-02-15T02:00:40.560Z,97785.19
2023-02-15T02:03:09.079Z,97781.97
2023-02-15T02:05:37.779Z,97845.28
2023-02-15T02:08:09.479Z,97857.28
2023-02-15T02:10:38.523Z,97815.44
2023-02-15T02:13:08.694Z,97811.03
2023-02-15T02:15:49.571Z,97800.56
2023-02-15T02:18:38.499Z,97812.56
2023-02-15T02:22:18.126Z,97881.66
2023-02-15T02:25:21.138Z,97835.81
2023-02-15T02:27:52.995Z,97829.44
2023-02-15T02:31:03.837Z,97819.44
2023-02-15T02:33:51.974Z,97815.25
2023-02-15T02:36:29.368Z,97856.03
2023-02-15T02:39:15.560Z,97835.63
2023-02-15T02:41:55.698Z,97799.53
2023-02-15T02:44:28.902Z,97827.19
2023-02-15T02:47:02.094Z,97803.91
2023-02-15T02:49:38.613Z,97853.31
2023-02-15T02:52:29.279Z,97687.94
2023-02-15T02:54:58.848Z,97799.03
2023-02-15T02:57:31.289Z,97794.13
2023-02-15T03:00:03.224Z,97826.25
2023-02-15T03:02:37.354Z,97840.72
2023-02-15T03:05:11.755Z,97876.97
2023-02-15T03:08:10.641Z,97822.56
2023-02-15T03:10:41.225Z,97708.66
2023-02-15T03:13:10.956Z,97837.25
2023-02-15T03:15:59.256Z,97801.44
2023-02-15T03:18:34.069Z,97745.28
2023-02-15T03:21:05.338Z,97829.38
2023-02-15T03:23:36.854Z,97793.44
2023-02-15T03:26:09.043Z,97809.81
2023-02-15T03:28:44.678Z,97814.88
2023-02-15T03:31:16.739Z,97778.88
2023-02-15T03:33:52.076Z,97790.13
2023-02-15T03:36:26.752Z,97811.66
2023-02-15T03:39:04.301Z,97819.56
2023-02-15T03:41:57.000Z,97814.09
2023-02-15T03:44:30.226Z,97780.88
2023-02-15T03:47:06.277Z,97820.19
2023-02-15T03:49:44.274Z,97795.22
2023-02-15T03:52:14.274Z,97833.63
2023-02-15T03:54:49.702Z,97831.56
2023-02-15T03:57:40.370Z,97770.69
2023-02-15T04:00:34.489Z,97794.72
2023-02-15T04:03:25.802Z,97809.91
2023-02-15T04:05:54.050Z,97787.56
2023-02-15T04:08:44.073Z,97775.56
2023-02-15T04:11:11.305Z,97783.19
2023-02-15T04:13:39.506Z,97799.88
2023-02-15T04:16:07.968Z,97782.63
2023-02-15T04:18:59.924Z,97784.31
2023-02-15T04:21:47.854Z,97803.53
2023-02-15T04:24:35.533Z,97707.31
2023-02-15T04:27:05.646Z,97780.69
2023-02-15T04:29:34.001Z,97770.09
2023-02-15T04:32:03.599Z,97775.28
2023-02-15T04:34:31.900Z,97750.66
2023-02-15T04:37:00.139Z,97755.34
2023-02-15T04:39:29.704Z,97812.56
2023-02-15T04:41:57.905Z,97769.66
2023-02-15T04:44:26.132Z,97725.63
2023-02-15T04:46:54.314Z,97767.63
2023-02-15T04:49:22.554Z,97738.72
2023-02-15T04:51:51.186Z,97749.91
2023-02-15T04:54:19.347Z,97779.00
2023-02-15T04:56:48.835Z,97788.78
2023-02-15T04:59:17.179Z,97756.19
2023-02-15T05:01:47.248Z,97740.81
2023-02-15T05:04:21.266Z,97768.31
2023-02-15T05:06:54.483Z,97723.97
2023-02-15T05:09:22.656Z,97773.91
2023-02-15T05:11:52.384Z,97781.44
2023-02-15T05:14:20.678Z,97751.28
2023-02-15T05:16:48.979Z,97723.00
2023-02-15T05:19:17.424Z,97727.31
2023-02-15T05:21:45.572Z,97712.88
2023-02-15T05:24:34.590Z,97776.66
2023-02-15T05:27:21.605Z,97752.28
2023-02-15T05:29:49.903Z,97773.44
2023-02-15T05:32:18.288Z,97734.81
2023-02-15T05:34:46.565Z,97774.13
2023-02-15T05:37:14.771Z,97728.22
2023-02-15T05:39:43.639Z,97752.00
2023-02-15T05:42:13.193Z,97724.06
2023-02-15T05:44:41.953Z,97800.53
2023-02-15T05:47:10.185Z,97860.34
2023-02-15T05:49:38.333Z,97751.59
2023-02-15T05:52:06.836Z,97818.19
2023-02-15T05:54:35.011Z,97751.41
2023-02-15T05:57:03.244Z,97759.09
2023-02-15T05:59:32.770Z,97754.63
2023-02-15T06:02:01.046Z,97787.91
2023-02-15T06:04:29.538Z,97817.47
2023-02-15T06:06:57.676Z,97778.44
2023-02-15T06:09:25.825Z,97792.00
2023-02-15T06:11:54.026Z,97772.28
2023-02-15T06:14:22.245Z,97795.75
2023-02-15T06:16:51.849Z,97795.31
2023-02-15T06:19:20.065Z,97835.16
2023-02-15T06:21:48.485Z,97795.03
2023-02-15T06:24:16.788Z,97793.00
2023-02-15T06:26:44.985Z,97754.41
2023-02-15T06:29:13.171Z,97778.75
2023-02-15T06:31:41.461Z,97832.13
2023-02-15T06:34:11.078Z,97783.88
2023-02-15T06:36:39.216Z,97774.97
2023-02-15T06:39:07.506Z,97736.53
2023-02-15T06:41:35.700Z,97744.69
2023-02-15T06:44:03.929Z,97806.66
2023-02-15T06:46:32.093Z,97779.00
2023-02-15T06:49:00.310Z,97756.00
2023-02-15T06:51:29.881Z,97742.69
2023-02-15T06:53:58.474Z,97821.34
2023-02-15T06:56:27.058Z,97807.06
2023-02-15T06:58:55.388Z,97760.91
2023-02-15T07:01:23.637Z,97810.97
2023-02-15T07:03:55.385Z,97775.41
2023-02-15T07:06:36.256Z,97750.19
2023-02-15T07:09:05.234Z,97782.00
2023-02-15T07:11:51.051Z,97750.19
2023-02-15T07:14:19.335Z,97801.38
2023-02-15T07:16:47.532Z,97814.13
2023-02-15T07:19:15.804Z,97805.13
2023-02-15T07:21:46.548Z,97792.31
2023-02-15T07:24:14.888Z,97840.38
2023-02-15T07:26:43.144Z,97775.72
2023-02-15T07:29:11.369Z,97758.34
2023-02-15T07:31:39.547Z,97758.59
2023-02-15T07:34:08.603Z,97811.38
2023-02-15T07:36:36.845Z,97787.78
2023-02-15T07:39:06.422Z,97764.31
2023-02-15T07:41:34.817Z,97762.81
2023-02-15T07:44:03.077Z,97813.41
2023-02-15T07:46:31.344Z,97795.28
2023-02-15T07:48:59.617Z,97762.47
2023-02-15T07:51:27.763Z,97783.84
2023-02-15T07:53:56.280Z,97725.34
2023-02-15T07:56:25.808Z,97779.47
2023-02-15T07:58:54.898Z,97811.31
2023-02-15T08:01:25.863Z,97771.59
2023-02-15T08:03:55.374Z,97731.09
2023-02-15T08:06:25.438Z,97661.59
2023-02-15T08:08:54.037Z,97787.31
2023-02-15T08:11:30.085Z,97765.06
2023-02-15T08:14:00.994Z,97798.59
2023-02-15T08:16:33.220Z,97707.75
2023-02-15T08:19:04.035Z,97852.56
2023-02-15T08:21:33.292Z,97806.19
2023-02-15T08:24:01.597Z,97770.81
2023-02-15T08:26:32.585Z,97866.38
2023-02-15T08:29:01.586Z,97765.94
2023-02-15T08:31:30.074Z,97763.22
2023-02-15T08:33:59.389Z,97773.91
2023-02-15T08:36:33.087Z,97780.75
2023-02-15T08:39:03.762Z,97751.72
2023-02-15T08:41:36.519Z,97770.69
2023-02-15T08:44:08.028Z,97727.78
2023-02-15T08:46:39.051Z,97773.56
2023-02-15T08:49:07.866Z,97611.06
2023-02-15T08:51:39.237Z,97757.44
2023-02-15T08:54:09.883Z,97769.75
2023-02-15T08:56:41.594Z,97752.16
2023-02-15T08:59:16.128Z,97784.94
2023-02-15T09:01:44.622Z,97714.47
2023-02-15T09:04:14.143Z,97737.31
2023-02-15T09:06:44.112Z,97767.41
2023-02-15T09:09:13.618Z,97752.19
2023-02-15T09:11:45.779Z,97739.44
2023-02-15T09:14:16.530Z,97747.22
2023-02-15T09:16:49.583Z,97758.06
2023-02-15T09:19:18.347Z,97756.03
2023-02-15T09:21:46.823Z,97723.03
2023-02-15T09:24:17.429Z,97750.81
2023-02-15T09:26:48.669Z,97727.41
2023-02-15T09:29:19.309Z,97753.31
2023-02-15T09:31:49.914Z,97732.47
2023-02-15T09:34:21.168Z,97743.34
2023-02-15T09:36:49.870Z,97745.75
2023-02-15T09:39:20.269Z,97786.88
2023-02-15T09:42:38.254Z,97749.72
2023-02-15T09:45:19.995Z,97745.84
2023-02-15T09:48:21.129Z,97772.97
2023-02-15T09:51:04.318Z,97782.19
2023-02-15T09:53:56.025Z,97740.81
2023-02-15T09:56:37.878Z,97795.41
2023-02-15T09:59:16.199Z,97707.41
2023-02-15T10:01:57.753Z,97728.25
2023-02-15T10:04:48.599Z,97698.53
2023-02-15T10:07:37.365Z,97739.63
2023-02-15T10:10:18.813Z,97736.78
2023-02-15T10:13:02.081Z,97747.25
2023-02-15T10:15:52.987Z,97690.72
2023-02-15T10:18:43.855Z,97721.22
2023-02-15T10:21:26.955Z,97701.16
2023-02-15T10:24:25.621Z,97718.09
2023-02-15T10:26:58.580Z,97746.81
2023-02-15T10:29:37.309Z,97704.13
2023-02-15T10:32:22.876Z,97691.75
2023-02-15T10:34:56.693Z,97726.44
2023-02-15T10:37:54.527Z,97712.41
2023-02-15T10:40:32.005Z,97758.41
2023-02-15T10:43:18.444Z,97708.59
2023-02-15T10:45:59.512Z,97677.22
2023-02-15T10:48:52.244Z,97719.56
2023-02-15T10:51:37.026Z,97692.28
2023-02-15T10:54:20.733Z,97715.75
2023-02-15T10:57:03.384Z,97688.34
2023-02-15T10:59:54.357Z,97711.19
2023-02-15T11:03:02.035Z,97706.03
2023-02-15T11:05:43.531Z,97653.81
2023-02-15T11:08:13.826Z,97672.13
2023-02-15T11:10:46.378Z,97643.34
2023-02-15T11:13:18.453Z,97659.09
2023-02-15T11:15:53.774Z,97648.84
2023-02-15T11:18:28.459Z,97654.13
2023-02-15T11:21:03.419Z,97680.66
2023-02-15T11:23:34.418Z,97602.31
2023-02-15T11:26:06.719Z,97658.63
2023-02-15T11:28:40.131Z,97685.19
2023-02-15T11:31:19.541Z,97676.47
2023-02-15T11:33:52.964Z,97593.03
2023-02-15T11:36:27.463Z,97670.16
2023-02-15T11:39:03.227Z,97670.94
2023-02-15T11:41:39.891Z,97672.00
2023-02-15T11:44:14.427Z,97635.09
2023-02-15T11:46:42.706Z,97510.47
2023-02-15T11:49:24.633Z,97636.38
2023-02-15T11:51:55.337Z,97584.31
2023-02-15T11:54:30.236Z,97610.59
2023-02-15T11:57:03.746Z,97591.38
2023-02-15T11:59:38.603Z,97655.75
2023-02-15T12:02:20.065Z,97643.94
2023-02-15T12:04:54.304Z,97642.78
2023-02-15T12:07:28.525Z,97619.56
2023-02-15T12:10:08.021Z,97618.94
2023-02-15T12:12:37.896Z,97621.88
2023-02-15T12:15:09.036Z,97637.72
2023-02-15T12:17:41.368Z,97671.28
2023-02-15T12:20:27.001Z,97605.03
2023-02-15T12:23:03.287Z,97664.38
2023-02-15T12:25:38.904Z,97583.16
2023-02-15T12:28:29.171Z,97602.81
2023-02-15T12:30:58.534Z,97636.50
2023-02-15T12:33:32.303Z,97571.22
2023-02-15T12:36:04.526Z,97598.41
2023-02-15T12:38:39.126Z,97596.44
2023-02-15T12:41:24.936Z,97583.91
2023-02-15T12:44:14.365Z,97592.72
2023-02-15T12:46:42.894Z,97553.38
2023-02-15T12:49:20.996Z,97598.81
2023-02-15T12:51:53.599Z,97639.72
2023-02-15T12:54:41.067Z,97575.03
2023-02-15T12:57:23.948Z,97593.00
2023-02-15T12:59:54.628Z,97579.19
2023-02-15T13:05:37.743Z,97561.06
2023-02-15T13:08:16.704Z,97592.00
2023-02-15T13:10:58.638Z,97552.38
2023-02-15T13:13:30.372Z,97560.38
2023-02-15T13:16:03.903Z,97574.75
2023-02-15T13:18:35.737Z,97533.94
2023-02-15T13:21:21.334Z,97543.97
2023-02-15T13:23:54.443Z,97506.81
2023-02-15T13:26:27.174Z,97530.97
2023-02-15T13:28:58.686Z,97558.16
2023-02-15T13:31:33.259Z,97589.66
2023-02-15T13:34:11.783Z,97584.06
2023-02-15T13:36:51.534Z,97607.28
2023-02-15T13:39:29.370Z,97575.78
2023-02-15T13:42:08.132Z,97541.66
2023-02-15T13:45:02.126Z,97542.72
2023-02-15T13:47:43.461Z,97525.63
2023-02-15T13:50:33.892Z,97498.28
2023-02-15T13:53:36.464Z,97504.28
2023-02-15T13:56:14.470Z,97507.09
2023-02-15T13:59:22.274Z,97538.56
2023-02-15T14:02:00.200Z,97531.56
2023-02-15T14:04:51.978Z,97515.50
2023-02-15T14:07:35.716Z,97538.66
2023-02-15T14:10:26.372Z,97520.88
2023-02-15T14:13:16.886Z,97487.97
2023-02-15T14:15:51.619Z,97522.63
2023-02-15T14:18:27.807Z,97531.09
2023-02-15T14:21:08.550Z,97521.84
2023-02-15T14:23:50.087Z,97536.41
2023-02-15T14:26:28.986Z,97451.56
2023-02-15T14:29:09.872Z,97516.72
2023-02-15T14:31:44.085Z,97506.22
2023-02-15T14:34:24.263Z,97533.03
2023-02-15T14:36:54.324Z,97512.19
2023-02-15T14:39:54.335Z,97521.25
2023-02-15T14:42:27.803Z,97500.59
2023-02-15T14:45:03.829Z,97522.22
2023-02-15T14:47:38.863Z,97452.81
2023-02-15T14:50:47.609Z,97500.28
2023-02-15T14:53:39.226Z,97516.34
2023-02-15T14:56:25.261Z,97505.25
2023-02-15T14:59:17.234Z,97539.31
2023-02-15T15:01:59.396Z,97497.06
2023-02-15T15:04:38.265Z,97519.69
2023-02-15T15:07:17.030Z,97427.53
2023-02-15T15:09:47.869Z,97469.22
2023-02-15T15:12:39.494Z,97511.84
2023-02-15T15:15:09.939Z,97532.41
2023-02-15T15:18:05.184Z,97481.44
2023-02-15T15:20:48.628Z,97491.28
2023-02-15T15:23:45.441Z,97518.75
2023-02-15T15:26:37.824Z,97563.25
2023-02-15T15:29:07.964Z,97506.44
2023-02-15T15:31:50.542Z,97563.50
2023-02-15T15:34:30.344Z,97512.31
2023-02-15T15:37:54.425Z,97528.03
2023-02-15T15:41:20.950Z,97436.06
2023-02-15T15:44:29.430Z,97532.28
2023-02-15T15:47:19.562Z,97496.59
2023-02-15T15:49:48.437Z,97497.97
2023-02-15T15:52:20.903Z,97522.09
2023-02-15T15:54:55.043Z,97474.06
2023-02-15T15:57:29.806Z,97492.94
2023-02-15T16:00:00.712Z,97474.53
2023-02-15T16:02:29.988Z,97543.59
2023-02-15T16:05:10.173Z,97515.16
2023-02-15T16:07:43.344Z,97530.91
2023-02-15T16:10:24.397Z,97514.81
2023-02-15T16:12:54.190Z,97546.59
2023-02-15T16:15:26.133Z,97556.41
2023-02-15T16:17:57.578Z,97518.66
2023-02-15T16:20:29.125Z,97491.59
2023-02-15T16:23:17.324Z,97435.47
2023-02-15T16:25:56.517Z,97507.19
2023-02-15T16:28:24.821Z,97507.25
2023-02-15T16:31:08.392Z,97521.94
2023-02-15T16:33:39.072Z,97539.09
2023-02-15T16:36:12.645Z,97539.72
2023-02-15T16:39:21.549Z,97532.91
2023-02-15T16:41:50.375Z,97564.22
2023-02-15T16:44:21.907Z,97534.50
2023-02-15T16:46:54.855Z,97480.69
2023-02-15T16:49:27.903Z,97545.53
2023-02-15T16:51:59.746Z,97552.59
2023-02-15T16:54:32.221Z,97543.69
2023-02-15T16:57:00.883Z,97546.94
2023-02-15T16:59:36.496Z,97573.50
2023-02-15T17:02:08.054Z,97559.47
2023-02-15T17:04:38.969Z,97553.53
2023-02-15T17:07:19.092Z,97525.06
2023-02-15T17:10:01.753Z,97573.59
2023-02-15T17:12:47.804Z,97580.97
2023-02-15T17:15:31.570Z,97514.28
2023-02-15T17:18:05.730Z,97537.06
2023-02-15T17:20:37.458Z,97572.66
2023-02-15T17:23:06.619Z,97575.31
2023-02-15T17:25:43.211Z,97579.09
2023-02-15T17:28:19.854Z,97581.91
2023-02-15T17:30:49.271Z,97623.78
2023-02-15T17:33:29.761Z,97581.47
2023-02-15T17:36:11.270Z,97575.56
2023-02-15T17:38:40.561Z,97567.13
2023-02-15T17:41:10.772Z,97592.75
2023-02-15T17:43:38.987Z,97611.97
2023-02-15T17:46:07.223Z,97591.31
2023-02-15T17:48:37.834Z,97626.09
2023-02-15T17:51:13.224Z,97549.91
2023-02-15T17:53:41.880Z,97580.72
2023-02-15T17:56:10.622Z,97609.19
2023-02-15T17:58:39.819Z,97570.91
2023-02-15T18:01:32.704Z,97577.28
2023-02-15T18:04:18.869Z,97590.91
2023-02-15T18:07:04.796Z,97598.13
2023-02-15T18:09:50.736Z,97595.50
2023-02-15T18:12:24.965Z,97574.53
2023-02-15T18:14:54.274Z,97635.88
2023-02-15T18:17:28.664Z,97653.22
2023-02-15T18:19:57.253Z,97587.31
2023-02-15T18:22:25.596Z,97570.22
2023-02-15T18:24:53.778Z,97597.50
2023-02-15T18:27:23.394Z,97589.59
2023-02-15T18:29:51.824Z,97602.63
2023-02-15T18:32:26.664Z,97603.44
2023-02-15T18:34:58.636Z,97612.47
2023-02-15T18:37:31.364Z,97606.69
2023-02-15T18:40:00.704Z,97622.41
2023-02-15T18:42:34.293Z,97606.97
2023-02-15T18:45:13.110Z,97619.72
2023-02-15T18:47:42.323Z,97603.28
2023-02-15T18:50:11.032Z,97580.50
2023-02-15T18:52:40.257Z,97643.84
2023-02-15T18:55:18.854Z,97639.47
2023-02-15T18:57:50.705Z,97629.63
2023-02-15T19:00:22.176Z,97621.06
2023-02-15T19:02:50.371Z,97614.63
2023-02-15T19:08:19.788Z,97633.38
2023-02-15T19:10:48.094Z,97651.22
2023-02-15T19:13:18.083Z,97615.22
2023-02-15T19:15:46.268Z,97622.84
2023-02-15T19:18:14.443Z,97633.25
2023-02-15T19:20:46.298Z,97605.53
2023-02-15T19:23:20.010Z,97580.09
2023-02-15T19:25:49.746Z,97587.19
2023-02-15T19:28:26.286Z,97594.16
2023-02-15T19:30:54.460Z,97599.72
2023-02-15T19:33:23.731Z,97610.50
2023-02-15T19:35:57.142Z,97599.06
2023-02-15T19:38:29.652Z,97568.25
2023-02-15T19:41:04.089Z,97594.13
2023-02-15T19:43:33.660Z,97452.88
2023-02-15T19:46:02.102Z,97563.16
2023-02-15T19:48:30.499Z,97598.22
2023-02-15T19:50:59.203Z,97677.47
2023-02-15T19:53:29.425Z,97597.09
2023-02-15T19:55:57.563Z,97615.00
2023-02-15T19:58:25.686Z,97609.31
2023-02-15T20:00:55.276Z,97596.06
2023-02-15T20:03:23.533Z,97560.25
2023-02-15T20:05:51.792Z,97578.75
2023-02-15T20:08:23.254Z,97613.66
2023-02-15T20:10:51.677Z,97559.06
2023-02-15T20:13:21.385Z,97630.72
2023-02-15T20:15:51.345Z,97576.66
2023-02-15T20:18:22.605Z,97567.72
2023-02-15T20:20:55.765Z,97576.59
2023-02-15T20:23:29.044Z,97568.22
2023-02-15T20:26:01.230Z,97593.91
2023-02-15T20:28:32.572Z,97583.84
2023-02-15T20:31:01.382Z,97528.31
2023-02-15T20:33:31.050Z,97564.47
2023-02-15T20:36:00.704Z,97572.97
2023-02-15T20:38:31.320Z,97546.88
2023-02-15T20:41:18.680Z,97593.63
2023-02-15T20:43:47.200Z,97523.13
2023-02-15T20:46:15.404Z,97581.84
2023-02-15T20:48:45.098Z,97505.63
2023-02-15T20:51:18.680Z,97537.34
2023-02-15T20:53:48.386Z,97549.88
2023-02-15T20:56:21.341Z,97555.22
2023-02-15T20:58:50.422Z,97557.78
2023-02-15T21:01:20.148Z,97582.63
2023-02-15T21:03:51.284Z,97544.34
2023-02-15T21:06:24.792Z,97519.94
2023-02-15T21:08:53.120Z,97579.00
2023-02-15T21:11:23.659Z,97591.88
2023-02-15T21:13:52.250Z,97550.56
2023-02-15T21:16:20.782Z,97505.22
2023-02-15T21:18:53.641Z,97558.06
2023-02-15T21:21:24.648Z,97577.66
2023-02-15T21:23:54.214Z,97431.56
2023-02-15T21:26:24.117Z,97546.88
2023-02-15T21:28:52.377Z,97563.06
2023-02-15T21:31:23.815Z,97549.94
2023-02-15T21:33:53.500Z,97582.00
2023-02-15T21:36:26.830Z,97542.72
2023-02-15T21:38:55.283Z,97624.44
2023-02-15T21:41:43.118Z,97562.56
2023-02-15T21:44:36.270Z,97614.78
2023-02-15T21:47:22.876Z,97582.88
2023-02-15T21:49:52.956Z,97522.53
2023-02-15T21:52:23.981Z,97560.00
2023-02-15T21:54:52.179Z,97569.06
2023-02-15T21:57:22.294Z,97537.69
2023-02-15T21:59:50.699Z,97597.56
2023-02-15T22:02:29.731Z,97574.13
2023-02-15T22:05:00.188Z,97652.13
2023-02-15T22:07:28.377Z,97564.69
2023-02-15T22:09:56.566Z,97533.63
2023-02-15T22:12:24.755Z,97592.63
2023-02-15T22:14:54.696Z,97563.16
2023-02-15T22:17:26.755Z,97519.91
2023-02-15T22:19:54.995Z,97635.19
2023-02-15T22:22:26.042Z,97584.31
2023-02-15T22:24:54.387Z,97577.63
2023-02-15T22:27:26.560Z,97577.47
2023-02-15T22:29:56.089Z,97581.13
2023-02-15T22:32:27.265Z,97515.41
2023-02-15T22:34:56.100Z,97379.72
2023-02-15T22:37:25.603Z,97580.53
2023-02-15T22:39:54.083Z,97503.59
2023-02-15T22:42:27.207Z,97542.81
2023-02-15T22:44:57.651Z,97542.75
2023-02-15T22:47:28.195Z,97576.84
2023-02-15T22:49:56.907Z,97505.91
2023-02-15T22:52:27.139Z,97527.06
2023-02-15T22:54:55.762Z,97535.44
2023-02-15T22:57:30.365Z,97557.84
2023-02-15T22:59:59.414Z,97559.59
2023-02-15T23:02:54.044Z,97500.19
2023-02-15T23:05:30.423Z,97563.44
2023-02-15T23:08:00.740Z,97518.25
2023-02-15T23:10:31.341Z,97556.59
2023-02-15T23:13:27.315Z,97560.88
2023-02-15T23:16:01.051Z,97526.63
2023-02-15T23:18:33.280Z,97483.69
2023-02-15T23:21:05.531Z,97547.91
2023-02-15T23:23:38.826Z,97519.38
2023-02-15T23:26:17.396Z,97539.81
2023-02-15T23:28:46.140Z,97537.72
2023-02-15T23:31:19.632Z,97532.22
2023-02-15T23:33:48.624Z,97501.31
2023-02-15T23:36:28.833Z,97544.94
2023-02-15T23:39:23.458Z,97521.81
2023-02-15T23:41:51.551Z,97549.81
2023-02-15T23:44:20.664Z,97571.59
2023-02-15T23:46:50.853Z,97493.19
2023-02-15T23:49:20.649Z,97522.66
2023-02-15T23:51:52.101Z,97398.41
2023-02-15T23:54:26.710Z,97545.78
2023-02-15T23:57:00.886Z,97491.13
2023-02-15T23:59:32.187Z,97531.16
